Time;durP1;ratioP1;P1;durP2;ratioP2;P2;SDS_P1;SDS_P2;PMS_P1;PMS_P2;Temp;Humidity;BMP_temperature;BMP_pressure;BME280_temperature;BME280_humidity;BME280_pressure;Samples;Min_cycle;Max_cycle;Signal;HPM_P1;HPM_P2
2023/09/27 00:00:08;;;;;;;20.65;17.88;;;12.90;99.90;;;;;;5137550;27;20046;-27
2023/09/27 00:02:34;;;;;;;25.95;20.08;;;12.80;99.90;;;;;;5156519;27;20448;-27
2023/09/27 00:05:00;;;;;;;26.88;21.20;;;12.90;99.90;;;;;;5155741;27;20074;-27
2023/09/27 00:07:26;;;;;;;24.17;21.13;;;12.80;99.90;;;;;;5154681;27;20043;-27
2023/09/27 00:09:52;;;;;;;21.90;18.75;;;12.80;99.90;;;;;;5155773;27;20114;-27
2023/09/27 00:12:20;;;;;;;23.88;18.95;;;12.80;99.90;;;;;;5155707;27;20043;-27
2023/09/27 00:14:46;;;;;;;25.15;19.50;;;12.80;99.90;;;;;;5155959;27;20177;-27
2023/09/27 00:17:12;;;;;;;23.17;19.08;;;12.80;99.90;;;;;;5156232;27;20100;-27
2023/09/27 00:19:38;;;;;;;21.83;18.58;;;12.80;99.90;;;;;;5155643;27;20042;-27
2023/09/27 00:22:03;;;;;;;22.88;18.40;;;12.70;99.90;;;;;;5154566;27;20149;-27
2023/09/27 00:24:29;;;;;;;24.60;20.25;;;12.70;99.90;;;;;;5154240;27;20195;-28
2023/09/27 00:26:57;;;;;;;23.88;19.08;;;12.60;99.90;;;;;;5155503;27;20474;-27
2023/09/27 00:29:23;;;;;;;26.02;19.95;;;12.60;99.90;;;;;;5156065;27;20121;-28
2023/09/27 00:31:48;;;;;;;22.40;18.45;;;12.60;99.90;;;;;;5156005;27;20089;-27
2023/09/27 00:34:14;;;;;;;21.73;19.25;;;12.30;99.90;;;;;;5155410;27;20099;-27
2023/09/27 00:36:40;;;;;;;23.02;20.42;;;12.60;99.90;;;;;;5155455;27;20042;-27
2023/09/27 00:39:05;;;;;;;26.25;20.35;;;12.50;99.90;;;;;;5154288;27;20426;-27
2023/09/27 00:41:33;;;;;;;26.73;20.83;;;12.50;99.90;;;;;;5137134;27;20046;-27
2023/09/27 00:44:01;;;;;;;29.92;20.80;;;12.60;99.90;;;;;;5154109;27;20472;-27
2023/09/27 00:46:27;;;;;;;26.85;19.90;;;12.60;99.90;;;;;;5137343;27;20047;-27
2023/09/27 00:48:56;;;;;;;28.05;20.60;;;12.60;99.90;;;;;;5154018;27;20049;-27
2023/09/27 00:51:26;;;;;;;26.13;20.17;;;12.50;99.90;;;;;;5136865;27;20085;-28
2023/09/27 00:53:54;;;;;;;23.55;18.98;;;12.50;99.90;;;;;;5154773;27;20403;-27
2023/09/27 00:56:22;;;;;;;25.48;19.95;;;12.50;99.90;;;;;;5159488;27;20089;-27
2023/09/27 00:58:48;;;;;;;27.83;21.25;;;12.50;99.90;;;;;;5159418;27;20076;-27
2023/09/27 01:01:15;;;;;;;24.67;21.25;;;12.40;99.90;;;;;;5158259;27;20469;-27
2023/09/27 01:03:41;;;;;;;24.50;20.42;;;12.50;99.90;;;;;;5158145;27;20046;-27
2023/09/27 01:06:08;;;;;;;24.02;20.83;;;12.50;99.90;;;;;;5158714;27;20047;-27
2023/09/27 01:08:34;;;;;;;25.65;21.70;;;12.60;99.90;;;;;;5160146;27;20063;-27
2023/09/27 01:11:01;;;;;;;26.48;20.77;;;12.50;99.90;;;;;;5157767;27;20600;-27
2023/09/27 01:13:27;;;;;;;24.98;20.98;;;12.60;99.90;;;;;;5159131;27;20043;-27
2023/09/27 01:15:53;;;;;;;27.75;22.08;;;12.60;99.90;;;;;;5159661;27;20051;-27
2023/09/27 01:18:19;;;;;;;28.35;21.38;;;12.60;99.90;;;;;;5159006;27;20099;-27
2023/09/27 01:20:47;;;;;;;35.72;21.38;;;12.60;99.90;;;;;;5159045;27;20522;-26
2023/09/27 01:23:13;;;;;;;26.05;21.73;;;12.60;99.90;;;;;;5158721;27;20046;-27
2023/09/27 01:25:39;;;;;;;22.10;19.70;;;12.70;99.90;;;;;;5159407;27;20393;-26
2023/09/27 01:28:09;;;;;;;24.27;19.70;;;12.70;99.90;;;;;;5159664;27;20046;-27
2023/09/27 01:30:36;;;;;;;24.90;20.17;;;12.60;99.90;;;;;;5159738;27;20119;-27
2023/09/27 01:33:10;;;;;;;25.38;20.90;;;12.50;99.90;;;;;;5157577;27;20126;-27
2023/09/27 01:35:40;;;;;;;28.52;20.75;;;12.50;99.90;;;;;;5158437;27;20046;-28
2023/09/27 01:38:07;;;;;;;28.27;20.92;;;12.50;99.90;;;;;;5158735;27;20098;-27
2023/09/27 01:40:40;;;;;;;25.73;20.70;;;12.50;99.90;;;;;;5158869;27;20042;-27
2023/09/27 01:43:08;;;;;;;25.02;20.90;;;12.50;99.90;;;;;;5159214;27;20050;-27
2023/09/27 01:45:36;;;;;;;28.00;21.73;;;12.60;99.90;;;;;;5158544;27;20051;-27
2023/09/27 01:48:04;;;;;;;28.48;21.98;;;12.60;99.90;;;;;;5159320;27;20065;-27
2023/09/27 01:50:32;;;;;;;25.88;21.70;;;12.50;99.90;;;;;;5140100;27;20043;-27
2023/09/27 01:53:00;;;;;;;26.08;21.02;;;12.50;99.90;;;;;;5157119;27;20043;-27
2023/09/27 01:55:33;;;;;;;31.27;24.25;;;12.50;99.90;;;;;;5158324;27;20042;-27
2023/09/27 01:58:00;;;;;;;24.83;21.77;;;12.50;99.90;;;;;;5158960;27;20076;-27
2023/09/27 02:00:26;;;;;;;26.00;22.33;;;12.50;99.90;;;;;;5157275;27;20050;-27
2023/09/27 02:02:59;;;;;;;24.92;21.10;;;12.50;99.90;;;;;;5158130;27;20050;-27
2023/09/27 02:05:28;;;;;;;;;;;12.50;99.90;;;;;;5157782;27;20437;-27
2023/09/27 02:07:56;;;;;;;24.23;20.67;;;12.40;99.90;;;;;;5158089;27;20348;-27
2023/09/27 02:10:22;;;;;;;28.75;22.42;;;12.40;99.90;;;;;;5158042;27;20049;-27
2023/09/27 02:12:48;;;;;;;26.55;21.88;;;12.40;99.90;;;;;;5156833;27;20488;-27
2023/09/27 02:15:15;;;;;;;27.98;22.48;;;12.30;99.90;;;;;;5139801;27;20046;-27
2023/09/27 02:17:42;;;;;;;27.63;21.88;;;12.30;99.90;;;;;;5158199;27;20046;-27
2023/09/27 02:20:17;;;;;;;25.55;21.17;;;12.30;99.90;;;;;;5157851;27;20047;-28
2023/09/27 02:22:46;;;;;;;35.38;23.75;;;12.20;99.90;;;;;;5158678;27;20050;-27
2023/09/27 02:25:13;;;;;;;28.40;23.30;;;12.30;99.90;;;;;;5158096;27;20075;-29
2023/09/27 02:27:40;;;;;;;26.45;23.52;;;12.30;99.90;;;;;;5157042;27;20073;-27
2023/09/27 02:30:12;;;;;;;36.20;25.25;;;12.30;99.90;;;;;;5157980;27;20043;-27
2023/09/27 02:32:42;;;;;;;30.17;23.65;;;12.40;99.90;;;;;;5157785;27;20043;-27
2023/09/27 02:35:09;;;;;;;31.65;24.10;;;12.40;99.90;;;;;;5157592;27;20047;-27
2023/09/27 02:37:38;;;;;;;29.35;24.15;;;12.30;99.90;;;;;;5157558;27;20050;-28
2023/09/27 02:40:11;;;;;;;28.73;22.27;;;12.30;99.90;;;;;;5156534;27;20065;-27
2023/09/27 02:42:43;;;;;;;29.67;22.98;;;12.20;99.90;;;;;;5156959;27;20054;-27
2023/09/27 02:45:10;;;;;;;30.00;24.15;;;12.20;99.90;;;;;;5156526;27;20086;-27
2023/09/27 02:47:39;;;;;;;27.83;24.70;;;12.20;99.90;;;;;;5156162;27;20047;-29
2023/09/27 02:50:09;;;;;;;36.75;27.48;;;12.20;99.90;;;;;;5157352;27;20085;-28
2023/09/27 02:52:38;;;;;;;30.52;24.58;;;12.10;99.90;;;;;;5156298;27;20046;-28
2023/09/27 02:55:08;;;;;;;30.98;25.52;;;12.10;99.90;;;;;;5157180;27;20050;-27
2023/09/27 02:57:33;;;;;;;35.80;28.45;;;12.10;99.90;;;;;;5157436;27;20460;-28
2023/09/27 03:00:01;;;;;;;33.72;26.63;;;12.10;99.90;;;;;;5157068;27;20078;-27
2023/09/27 03:02:33;;;;;;;33.17;28.80;;;12.10;99.90;;;;;;5157041;27;20047;-27
2023/09/27 03:04:59;;;;;;;33.67;26.77;;;12.10;99.90;;;;;;5157163;27;20469;-27
2023/09/27 03:07:25;;;;;;;34.92;26.83;;;12.10;99.90;;;;;;5155759;27;20061;-27
2023/09/27 03:09:58;;;;;;;32.95;26.98;;;12.00;99.90;;;;;;5156859;27;20039;-27
2023/09/27 03:12:24;;;;;;;38.90;31.00;;;12.00;99.90;;;;;;5155999;27;20129;-27
2023/09/27 03:14:54;;;;;;;33.85;26.90;;;12.10;99.90;;;;;;5138565;27;20621;-27
2023/09/27 03:17:20;;;;;;;37.97;27.23;;;12.00;99.90;;;;;;5155574;27;20515;-27
2023/09/27 03:19:49;;;;;;;34.60;26.25;;;12.00;99.90;;;;;;5156730;27;20046;-27
2023/09/27 03:22:19;;;;;;;32.00;26.08;;;12.00;99.90;;;;;;5155918;27;20126;-27
2023/09/27 03:24:45;;;;;;;35.13;28.02;;;12.00;99.90;;;;;;5156740;27;20091;-27
2023/09/27 03:27:11;;;;;;;37.20;28.50;;;12.00;99.90;;;;;;5138803;27;20142;-29
2023/09/27 03:29:36;;;;;;;33.00;26.42;;;12.00;99.90;;;;;;5156154;27;20043;-27
2023/09/27 03:32:02;;;;;;;31.40;26.15;;;12.00;99.90;;;;;;5155508;27;20167;-27
2023/09/27 03:34:28;;;;;;;35.45;26.65;;;12.00;99.90;;;;;;5156403;27;20099;-27
2023/09/27 03:36:56;;;;;;;33.58;27.98;;;11.90;99.90;;;;;;5155487;27;20082;-27
2023/09/27 03:39:28;;;;;;;32.63;25.33;;;11.90;99.90;;;;;;5155982;27;20493;-27
2023/09/27 03:41:56;;;;;;;30.83;25.55;;;11.90;99.90;;;;;;5156881;27;20047;-27
2023/09/27 03:44:22;;;;;;;33.63;28.42;;;11.90;99.90;;;;;;5154963;27;20076;-29
2023/09/27 03:46:52;;;;;;;34.53;28.17;;;11.80;99.90;;;;;;5156195;27;20047;-27
2023/09/27 03:49:18;;;;;;;40.13;30.15;;;11.80;99.90;;;;;;5154928;27;20196;-27
2023/09/27 03:51:44;;;;;;;35.75;27.50;;;11.80;99.90;;;;;;5156871;27;20139;-27
2023/09/27 03:54:09;;;;;;;36.92;28.85;;;11.70;99.90;;;;;;5156173;27;20530;-27
2023/09/27 03:56:35;;;;;;;35.80;27.27;;;11.70;99.90;;;;;;5154825;27;20050;-27
2023/09/27 03:59:01;;;;;;;41.33;30.75;;;11.60;99.90;;;;;;5155947;27;20099;-27
2023/09/27 04:01:26;;;;;;;33.25;26.25;;;11.60;99.90;;;;;;5156763;27;20073;-27
2023/09/27 04:03:52;;;;;;;39.38;31.90;;;11.60;99.90;;;;;;5155820;27;20118;-27
2023/09/27 04:06:18;;;;;;;37.78;30.40;;;11.60;99.90;;;;;;5155805;27;20071;-27
2023/09/27 04:08:44;;;;;;;41.45;32.40;;;11.60;99.90;;;;;;5154810;27;20049;-27
2023/09/27 04:11:10;;;;;;;40.63;30.88;;;11.60;99.90;;;;;;5155721;27;20130;-27
2023/09/27 04:13:35;;;;;;;40.67;30.77;;;11.50;99.90;;;;;;5154425;27;20050;-27
2023/09/27 04:16:01;;;;;;;44.22;32.83;;;11.50;99.90;;;;;;5155675;27;20050;-27
2023/09/27 04:18:27;;;;;;;38.55;28.75;;;11.50;99.90;;;;;;5156204;27;20123;-27
2023/09/27 04:20:53;;;;;;;39.85;29.50;;;11.50;99.90;;;;;;5154661;27;20053;-27
2023/09/27 04:23:19;;;;;;;45.85;34.08;;;11.50;99.90;;;;;;5154201;27;20034;-27
2023/09/27 04:25:44;;;;;;;52.92;35.92;;;11.50;99.90;;;;;;5154852;27;20474;-27
2023/09/27 04:28:15;;;;;;;43.45;33.03;;;11.50;99.90;;;;;;5155356;27;20052;-27
2023/09/27 04:30:41;;;;;;;42.50;33.13;;;11.50;99.90;;;;;;5156372;27;20046;-27
2023/09/27 04:33:07;;;;;;;45.42;33.90;;;11.40;99.90;;;;;;5155464;27;20451;-27
2023/09/27 04:35:35;;;;;;;45.13;32.90;;;11.50;99.90;;;;;;5154223;27;20070;-27
2023/09/27 04:38:00;;;;;;;45.47;33.33;;;11.40;99.90;;;;;;5155360;27;20470;-27
2023/09/27 04:40:26;;;;;;;50.20;35.85;;;11.30;99.90;;;;;;5154704;27;20049;-27
2023/09/27 04:42:52;;;;;;;49.75;37.03;;;11.40;99.90;;;;;;5154183;27;20046;-27
2023/09/27 04:45:17;;;;;;;45.72;34.03;;;11.30;99.90;;;;;;5155247;27;20047;-27
2023/09/27 04:47:44;;;;;;;43.33;33.22;;;11.30;99.90;;;;;;5155835;27;20084;-28
2023/09/27 04:50:10;;;;;;;47.10;34.65;;;11.20;99.90;;;;;;5156137;27;20043;-27
2023/09/27 04:52:40;;;;;;;47.35;32.80;;;11.20;99.90;;;;;;5154037;27;20461;-28
2023/09/27 04:55:07;;;;;;;43.30;31.00;;;11.10;99.90;;;;;;5154232;27;20487;-27
2023/09/27 04:57:35;;;;;;;46.10;31.50;;;11.10;99.90;;;;;;5156045;27;20082;-27
2023/09/27 05:00:06;;;;;;;45.13;33.58;;;11.10;99.90;;;;;;5156008;27;20047;-27
2023/09/27 05:02:34;;;;;;;52.05;36.00;;;11.20;99.90;;;;;;5156091;27;20451;-27
2023/09/27 05:05:00;;;;;;;46.05;32.25;;;11.10;99.90;;;;;;5155095;27;20392;-27
2023/09/27 05:07:25;;;;;;;47.03;32.40;;;11.10;99.90;;;;;;5155941;27;20046;-27
2023/09/27 05:09:51;;;;;;;50.17;35.88;;;11.10;99.90;;;;;;5154345;27;20074;-27
2023/09/27 05:12:17;;;;;;;49.70;34.13;;;11.10;99.90;;;;;;5155033;27;20479;-27
2023/09/27 05:14:44;;;;;;;43.17;32.35;;;11.10;99.90;;;;;;5155332;27;20445;-27
2023/09/27 05:17:09;;;;;;;53.38;36.80;;;11.10;99.90;;;;;;5153843;27;20038;-27
2023/09/27 05:19:35;;;;;;;54.95;37.40;;;11.00;99.90;;;;;;5155207;27;20499;-27
2023/09/27 05:22:01;;;;;;;48.95;34.63;;;11.00;99.90;;;;;;5136182;27;20403;-27
2023/09/27 05:24:29;;;;;;;51.50;35.72;;;11.10;99.90;;;;;;5154994;27;20050;-28
2023/09/27 05:26:59;;;;;;;51.72;38.38;;;11.00;99.90;;;;;;5154310;27;20407;-27
2023/09/27 05:29:25;;;;;;;56.80;38.72;;;10.90;99.90;;;;;;5155524;27;20050;-27
2023/09/27 05:31:51;;;;;;;54.95;38.22;;;10.90;99.90;;;;;;5154785;27;20373;-27
2023/09/27 05:34:19;;;;;;;60.30;41.72;;;11.00;99.90;;;;;;5154918;27;20100;-27
2023/09/27 05:36:47;;;;;;;61.22;40.33;;;11.00;99.90;;;;;;5153718;27;20058;-27
2023/09/27 05:39:16;;;;;;;59.75;38.97;;;11.00;99.90;;;;;;5155581;27;20043;-27
2023/09/27 05:41:42;;;;;;;63.78;42.78;;;11.00;99.90;;;;;;5157223;27;20053;-27
2023/09/27 05:44:10;;;;;;;57.80;40.33;;;11.10;99.90;;;;;;5158457;27;20038;-27
2023/09/27 05:46:40;;;;;;;69.93;44.25;;;11.20;99.90;;;;;;5158456;27;20043;-27
2023/09/27 05:49:09;;;;;;;71.05;44.28;;;11.20;99.90;;;;;;5158454;27;20126;-27
2023/09/27 05:51:37;;;;;;;63.10;41.88;;;11.20;99.90;;;;;;5159049;27;20050;-27
2023/09/27 05:54:03;;;;;;;63.55;41.40;;;11.30;99.90;;;;;;5158874;27;20062;-27
2023/09/27 05:56:34;;;;;;;65.05;42.88;;;11.30;99.90;;;;;;5158916;27;20472;-27
2023/09/27 05:59:03;;;;;;;62.85;42.40;;;11.30;99.90;;;;;;5157957;27;20381;-27
2023/09/27 06:01:31;;;;;;;60.65;42.08;;;11.30;99.90;;;;;;5158472;27;20399;-27
2023/09/27 06:03:59;;;;;;;67.53;42.28;;;11.40;99.90;;;;;;5158385;27;20070;-27
2023/09/27 06:06:30;;;;;;;57.15;39.70;;;11.50;99.90;;;;;;5158605;27;20050;-27
2023/09/27 06:08:55;;;;;;;59.55;41.58;;;11.60;99.90;;;;;;5158125;27;20135;-28
2023/09/27 06:11:21;;;;;;;66.30;45.40;;;11.70;99.90;;;;;;5157981;27;20086;-27
2023/09/27 06:13:47;;;;;;;65.15;42.22;;;11.70;99.90;;;;;;5158052;27;20045;-27
2023/09/27 06:16:16;;;;;;;66.80;45.67;;;11.70;99.90;;;;;;5157212;27;20046;-27
2023/09/27 06:18:42;;;;;;;64.32;44.50;;;11.80;99.90;;;;;;5156957;27;20043;-27
2023/09/27 06:21:08;;;;;;;59.42;40.38;;;11.90;99.90;;;;;;5157591;27;20039;-27
2023/09/27 06:23:35;;;;;;;61.40;40.90;;;11.90;99.90;;;;;;5139821;27;20050;-28
2023/09/27 06:26:01;;;;;;;60.25;40.83;;;11.90;99.90;;;;;;5139315;27;20043;-27
2023/09/27 06:28:29;;;;;;;65.05;43.38;;;12.00;99.90;;;;;;5156738;27;20038;-27
2023/09/27 06:30:57;;;;;;;56.88;38.47;;;12.10;99.90;;;;;;5157650;27;20527;-27
2023/09/27 06:33:23;;;;;;;53.17;39.95;;;12.10;99.90;;;;;;5158217;27;20043;-27
2023/09/27 06:35:49;;;;;;;66.28;41.92;;;12.10;99.90;;;;;;5158412;27;20046;-28
2023/09/27 06:38:19;;;;;;;60.88;40.13;;;12.20;99.90;;;;;;5156271;27;20038;-27
2023/09/27 06:40:44;;;;;;;55.85;40.17;;;12.20;99.90;;;;;;5157575;27;20046;-27
2023/09/27 06:43:13;;;;;;;61.35;42.10;;;12.30;99.90;;;;;;5157380;27;20555;-27
2023/09/27 06:45:42;;;;;;;56.50;41.95;;;12.30;99.90;;;;;;5156190;27;20039;-27
2023/09/27 06:48:10;;;;;;;60.22;42.85;;;12.50;99.90;;;;;;5157287;27;20503;-27
2023/09/27 06:50:39;;;;;;;55.50;38.10;;;12.60;99.90;;;;;;5157360;27;20046;-29
2023/09/27 06:53:07;;;;;;;52.58;39.50;;;12.80;99.90;;;;;;5155859;27;20516;-27
2023/09/27 06:55:36;;;;;;;52.75;39.42;;;12.90;99.90;;;;;;5155952;27;20045;-28
2023/09/27 06:58:03;;;;;;;47.80;37.83;;;13.10;99.90;;;;;;5156143;27;20131;-27
2023/09/27 07:00:32;;;;;;;50.85;39.40;;;13.30;99.90;;;;;;5156703;27;20488;-28
2023/09/27 07:02:58;;;;;;;44.53;33.88;;;13.40;99.90;;;;;;5156647;27;20412;-27
2023/09/27 07:05:26;;;;;;;45.15;35.67;;;13.50;99.90;;;;;;5155667;27;20034;-27
2023/09/27 07:07:54;;;;;;;43.15;34.95;;;13.60;99.90;;;;;;5156957;27;20396;-27
2023/09/27 07:10:27;;;;;;;42.00;33.22;;;13.60;99.90;;;;;;5155637;27;20112;-28
2023/09/27 07:12:54;;;;;;;;;;;13.70;99.90;;;;;;5157967;27;20049;-28
2023/09/27 07:15:20;;;;;;;36.40;29.30;;;13.80;99.90;;;;;;5139605;27;19965;-27
2023/09/27 07:17:49;;;;;;;38.90;32.15;;;13.90;99.90;;;;;;5155576;27;20050;-28
2023/09/27 07:20:32;;;;;;;39.90;33.85;;;14.10;99.90;;;;;;5157280;27;20046;-28
2023/09/27 07:22:58;;;;;;;38.85;31.23;;;14.30;99.90;;;;;;5156685;27;20053;-28
2023/09/27 07:25:25;;;;;;;33.53;27.38;;;14.50;99.90;;;;;;5156596;27;20053;-29
2023/09/27 07:27:55;;;;;;;34.80;30.10;;;14.60;99.90;;;;;;5155235;27;20091;-27
2023/09/27 07:30:23;;;;;;;36.47;29.77;;;14.80;99.90;;;;;;5155589;27;20047;-27
2023/09/27 07:32:53;;;;;;;35.13;26.92;;;14.80;99.90;;;;;;5156708;27;20469;-28
2023/09/27 07:35:21;;;;;;;32.65;27.38;;;15.00;99.90;;;;;;5156094;27;20047;-28
2023/09/27 07:37:49;;;;;;;32.97;27.08;;;15.10;99.90;;;;;;5156388;27;20473;-28
2023/09/27 07:40:22;;;;;;;32.30;27.00;;;15.20;99.90;;;;;;5156213;27;20183;-27
2023/09/27 07:42:48;;;;;;;32.72;25.58;;;15.30;99.90;;;;;;5157121;27;20046;-27
2023/09/27 07:45:25;;;;;;;33.03;26.77;;;15.40;99.90;;;;;;5155829;27;20043;-28
2023/09/27 07:47:55;;;;;;;29.10;25.27;;;15.50;99.90;;;;;;5156141;27;20082;-28
2023/09/27 07:50:30;;;;;;;31.17;26.63;;;15.70;99.90;;;;;;5156940;27;20149;-29
2023/09/27 07:53:00;;;;;;;30.17;25.30;;;15.80;99.90;;;;;;5156845;27;20125;-27
2023/09/27 07:55:26;;;;;;;26.98;24.08;;;15.90;99.90;;;;;;5156543;27;20050;-27
2023/09/27 07:57:52;;;;;;;28.17;24.55;;;16.10;99.90;;;;;;5154983;27;20051;-27
2023/09/27 08:00:25;;;;;;;30.10;24.65;;;16.10;99.90;;;;;;5155919;27;20057;-27
2023/09/27 08:02:51;;;;;;;;;;;16.20;99.90;;;;;;5155673;27;20472;-27
2023/09/27 08:05:17;;;;;;;26.83;23.23;;;16.30;99.90;;;;;;5156534;27;19926;-27
2023/09/27 08:07:46;;;;;;;26.30;23.15;;;16.40;99.90;;;;;;5154332;27;20125;-27
2023/09/27 08:10:15;;;;;;;27.08;23.10;;;16.50;99.90;;;;;;5154552;27;20502;-27
2023/09/27 08:12:42;;;;;;;29.35;23.35;;;16.60;99.90;;;;;;5155756;27;20103;-27
